sensor_id;sensor_type;location;lat;lon;timestamp;P1;durP1;ratioP1;P2;durP2;ratioP2
54705;SDS011;40603;48.774;8.916;2023-07-20T00:02:03;17.95;;;3.00;;
54705;SDS011;40603;48.774;8.916;2023-07-20T00:04:30;9.23;;;2.38;;
54705;SDS011;40603;48.774;8.916;2023-07-20T00:06:55;4.40;;;2.22;;
54705;SDS011;40603;48.774;8.916;2023-07-20T00:09:20;3.00;;;1.70;;
54705;SDS011;40603;48.774;8.916;2023-07-20T00:11:50;5.80;;;2.10;;
54705;SDS011;40603;48.774;8.916;2023-07-20T00:14:16;4.75;;;2.00;;
54705;SDS011;40603;48.774;8.916;2023-07-20T00:16:41;6.88;;;2.42;;
54705;SDS011;40603;48.774;8.916;2023-07-20T00:19:06;5.45;;;2.08;;
54705;SDS011;40603;48.774;8.916;2023-07-20T00:21:33;3.88;;;1.80;;
54705;SDS011;40603;48.774;8.916;2023-07-20T00:23:58;3.65;;;1.85;;
54705;SDS011;40603;48.774;8.916;2023-07-20T00:26:23;3.60;;;2.40;;
54705;SDS011;40603;48.774;8.916;2023-07-20T00:28:49;6.88;;;1.83;;
54705;SDS011;40603;48.774;8.916;2023-07-20T00:31:15;4.15;;;2.00;;
54705;SDS011;40603;48.774;8.916;2023-07-20T00:33:40;2.42;;;1.98;;
54705;SDS011;40603;48.774;8.916;2023-07-20T00:36:05;3.38;;;2.05;;
54705;SDS011;40603;48.774;8.916;2023-07-20T00:38:31;3.65;;;1.85;;
54705;SDS011;40603;48.774;8.916;2023-07-20T00:40:56;4.45;;;2.17;;
54705;SDS011;40603;48.774;8.916;2023-07-20T00:43:22;8.10;;;2.10;;
54705;SDS011;40603;48.774;8.916;2023-07-20T00:45:47;4.50;;;1.88;;
54705;SDS011;40603;48.774;8.916;2023-07-20T00:48:12;2.90;;;1.83;;
54705;SDS011;40603;48.774;8.916;2023-07-20T00:50:38;5.78;;;1.77;;
54705;SDS011;40603;48.774;8.916;2023-07-20T00:53:04;3.15;;;1.88;;
54705;SDS011;40603;48.774;8.916;2023-07-20T00:55:30;3.30;;;1.70;;
54705;SDS011;40603;48.774;8.916;2023-07-20T00:57:56;3.15;;;1.83;;
54705;SDS011;40603;48.774;8.916;2023-07-20T01:00:22;5.40;;;2.30;;
54705;SDS011;40603;48.774;8.916;2023-07-20T01:02:48;3.78;;;2.20;;
54705;SDS011;40603;48.774;8.916;2023-07-20T01:05:13;6.18;;;2.13;;
54705;SDS011;40603;48.774;8.916;2023-07-20T01:07:52;4.07;;;1.95;;
54705;SDS011;40603;48.774;8.916;2023-07-20T01:10:25;3.35;;;1.95;;
54705;SDS011;40603;48.774;8.916;2023-07-20T01:12:56;2.85;;;1.90;;
54705;SDS011;40603;48.774;8.916;2023-07-20T01:15:22;6.78;;;2.17;;
54705;SDS011;40603;48.774;8.916;2023-07-20T01:17:48;3.45;;;2.22;;
54705;SDS011;40603;48.774;8.916;2023-07-20T01:20:13;3.53;;;2.05;;
54705;SDS011;40603;48.774;8.916;2023-07-20T01:30:39;3.85;;;1.73;;
54705;SDS011;40603;48.774;8.916;2023-07-20T01:33:11;4.20;;;2.35;;
54705;SDS011;40603;48.774;8.916;2023-07-20T01:35:38;3.88;;;2.13;;
54705;SDS011;40603;48.774;8.916;2023-07-20T01:38:06;3.80;;;2.35;;
54705;SDS011;40603;48.774;8.916;2023-07-20T01:40:32;3.53;;;2.13;;
54705;SDS011;40603;48.774;8.916;2023-07-20T01:42:57;2.70;;;1.90;;
54705;SDS011;40603;48.774;8.916;2023-07-20T01:45:22;3.72;;;1.75;;
54705;SDS011;40603;48.774;8.916;2023-07-20T01:47:48;4.78;;;2.03;;
54705;SDS011;40603;48.774;8.916;2023-07-20T01:50:13;3.35;;;2.00;;
54705;SDS011;40603;48.774;8.916;2023-07-20T01:52:38;5.85;;;2.10;;
54705;SDS011;40603;48.774;8.916;2023-07-20T01:55:04;3.35;;;1.90;;
54705;SDS011;40603;48.774;8.916;2023-07-20T01:57:30;4.25;;;1.80;;
54705;SDS011;40603;48.774;8.916;2023-07-20T01:59:55;6.15;;;2.38;;
54705;SDS011;40603;48.774;8.916;2023-07-20T02:02:20;5.20;;;1.70;;
54705;SDS011;40603;48.774;8.916;2023-07-20T02:04:48;5.53;;;2.03;;
54705;SDS011;40603;48.774;8.916;2023-07-20T02:07:13;2.78;;;2.08;;
54705;SDS011;40603;48.774;8.916;2023-07-20T02:09:38;3.55;;;2.30;;
54705;SDS011;40603;48.774;8.916;2023-07-20T02:12:04;5.43;;;2.22;;
54705;SDS011;40603;48.774;8.916;2023-07-20T02:14:29;3.65;;;2.13;;
54705;SDS011;40603;48.774;8.916;2023-07-20T02:16:54;4.60;;;2.00;;
54705;SDS011;40603;48.774;8.916;2023-07-20T02:19:24;6.73;;;2.83;;
54705;SDS011;40603;48.774;8.916;2023-07-20T02:21:50;2.53;;;1.90;;
54705;SDS011;40603;48.774;8.916;2023-07-20T02:24:15;5.25;;;2.30;;
54705;SDS011;40603;48.774;8.916;2023-07-20T02:26:40;6.40;;;2.17;;
54705;SDS011;40603;48.774;8.916;2023-07-20T02:29:06;3.45;;;2.30;;
54705;SDS011;40603;48.774;8.916;2023-07-20T02:31:32;6.70;;;2.35;;
54705;SDS011;40603;48.774;8.916;2023-07-20T02:33:58;4.45;;;2.13;;
54705;SDS011;40603;48.774;8.916;2023-07-20T02:36:23;4.45;;;2.10;;
54705;SDS011;40603;48.774;8.916;2023-07-20T02:38:48;6.03;;;2.13;;
54705;SDS011;40603;48.774;8.916;2023-07-20T02:41:14;5.13;;;2.38;;
54705;SDS011;40603;48.774;8.916;2023-07-20T02:43:39;3.67;;;2.08;;
54705;SDS011;40603;48.774;8.916;2023-07-20T02:46:04;3.22;;;1.73;;
54705;SDS011;40603;48.774;8.916;2023-07-20T02:48:29;4.13;;;2.25;;
54705;SDS011;40603;48.774;8.916;2023-07-20T02:50:55;4.72;;;2.15;;
54705;SDS011;40603;48.774;8.916;2023-07-20T02:53:20;3.80;;;1.92;;
54705;SDS011;40603;48.774;8.916;2023-07-20T02:55:45;2.28;;;1.75;;
54705;SDS011;40603;48.774;8.916;2023-07-20T02:58:11;3.63;;;2.03;;
54705;SDS011;40603;48.774;8.916;2023-07-20T03:00:37;4.97;;;2.28;;
54705;SDS011;40603;48.774;8.916;2023-07-20T03:03:02;5.07;;;2.05;;
54705;SDS011;40603;48.774;8.916;2023-07-20T03:05:28;5.38;;;2.08;;
54705;SDS011;40603;48.774;8.916;2023-07-20T03:07:53;4.80;;;1.80;;
54705;SDS011;40603;48.774;8.916;2023-07-20T03:10:18;4.15;;;2.45;;
54705;SDS011;40603;48.774;8.916;2023-07-20T03:12:44;8.43;;;2.03;;
54705;SDS011;40603;48.774;8.916;2023-07-20T03:15:09;5.50;;;2.05;;
54705;SDS011;40603;48.774;8.916;2023-07-20T03:17:35;2.28;;;2.03;;
54705;SDS011;40603;48.774;8.916;2023-07-20T03:20:00;3.83;;;1.95;;
54705;SDS011;40603;48.774;8.916;2023-07-20T03:22:25;3.75;;;2.10;;
54705;SDS011;40603;48.774;8.916;2023-07-20T03:24:51;6.63;;;2.28;;
54705;SDS011;40603;48.774;8.916;2023-07-20T03:27:17;2.88;;;2.10;;
54705;SDS011;40603;48.774;8.916;2023-07-20T03:29:43;3.30;;;2.00;;
54705;SDS011;40603;48.774;8.916;2023-07-20T03:32:09;3.30;;;2.08;;
54705;SDS011;40603;48.774;8.916;2023-07-20T03:34:34;3.17;;;2.03;;
54705;SDS011;40603;48.774;8.916;2023-07-20T03:37:00;4.55;;;2.10;;
54705;SDS011;40603;48.774;8.916;2023-07-20T03:39:25;5.47;;;2.08;;
54705;SDS011;40603;48.774;8.916;2023-07-20T03:41:51;4.00;;;1.80;;
54705;SDS011;40603;48.774;8.916;2023-07-20T03:44:16;3.95;;;2.10;;
54705;SDS011;40603;48.774;8.916;2023-07-20T03:46:42;4.70;;;2.65;;
54705;SDS011;40603;48.774;8.916;2023-07-20T03:49:07;4.28;;;2.60;;
54705;SDS011;40603;48.774;8.916;2023-07-20T03:51:33;3.53;;;2.10;;
54705;SDS011;40603;48.774;8.916;2023-07-20T03:53:59;4.85;;;2.03;;
54705;SDS011;40603;48.774;8.916;2023-07-20T03:56:24;3.60;;;2.05;;
54705;SDS011;40603;48.774;8.916;2023-07-20T03:58:50;5.63;;;2.42;;
54705;SDS011;40603;48.774;8.916;2023-07-20T04:01:15;5.40;;;2.58;;
54705;SDS011;40603;48.774;8.916;2023-07-20T04:03:41;3.55;;;2.22;;
54705;SDS011;40603;48.774;8.916;2023-07-20T04:06:07;3.25;;;1.98;;
54705;SDS011;40603;48.774;8.916;2023-07-20T04:08:33;2.83;;;1.90;;
54705;SDS011;40603;48.774;8.916;2023-07-20T04:11:00;5.00;;;2.13;;
54705;SDS011;40603;48.774;8.916;2023-07-20T04:13:26;8.18;;;2.50;;
54705;SDS011;40603;48.774;8.916;2023-07-20T04:15:53;3.83;;;2.22;;
54705;SDS011;40603;48.774;8.916;2023-07-20T04:18:18;9.93;;;2.50;;
54705;SDS011;40603;48.774;8.916;2023-07-20T04:20:43;3.13;;;2.10;;
54705;SDS011;40603;48.774;8.916;2023-07-20T04:23:08;3.72;;;2.33;;
54705;SDS011;40603;48.774;8.916;2023-07-20T04:25:34;6.00;;;2.53;;
54705;SDS011;40603;48.774;8.916;2023-07-20T04:28:03;11.27;;;2.70;;
54705;SDS011;40603;48.774;8.916;2023-07-20T04:30:29;5.10;;;2.22;;
54705;SDS011;40603;48.774;8.916;2023-07-20T04:32:54;3.83;;;2.20;;
54705;SDS011;40603;48.774;8.916;2023-07-20T04:38:16;7.45;;;2.45;;
54705;SDS011;40603;48.774;8.916;2023-07-20T04:40:43;4.00;;;2.47;;
54705;SDS011;40603;48.774;8.916;2023-07-20T04:43:09;3.45;;;1.88;;
54705;SDS011;40603;48.774;8.916;2023-07-20T04:45:34;6.03;;;2.42;;
54705;SDS011;40603;48.774;8.916;2023-07-20T04:48:00;5.55;;;2.28;;
54705;SDS011;40603;48.774;8.916;2023-07-20T04:50:25;5.13;;;2.50;;
54705;SDS011;40603;48.774;8.916;2023-07-20T04:52:50;3.75;;;2.22;;
54705;SDS011;40603;48.774;8.916;2023-07-20T04:55:16;7.88;;;2.83;;
54705;SDS011;40603;48.774;8.916;2023-07-20T04:57:41;6.85;;;2.38;;
54705;SDS011;40603;48.774;8.916;2023-07-20T05:00:06;4.45;;;2.42;;
54705;SDS011;40603;48.774;8.916;2023-07-20T05:02:32;5.55;;;2.60;;
54705;SDS011;40603;48.774;8.916;2023-07-20T05:04:57;5.53;;;2.20;;
54705;SDS011;40603;48.774;8.916;2023-07-20T05:07:23;7.15;;;2.15;;
54705;SDS011;40603;48.774;8.916;2023-07-20T05:09:48;5.55;;;2.35;;
54705;SDS011;40603;48.774;8.916;2023-07-20T05:12:14;4.80;;;2.42;;
54705;SDS011;40603;48.774;8.916;2023-07-20T05:14:40;3.72;;;2.15;;
54705;SDS011;40603;48.774;8.916;2023-07-20T05:17:06;6.05;;;2.13;;
54705;SDS011;40603;48.774;8.916;2023-07-20T05:19:32;5.60;;;2.20;;
54705;SDS011;40603;48.774;8.916;2023-07-20T05:21:57;3.65;;;2.10;;
54705;SDS011;40603;48.774;8.916;2023-07-20T05:24:22;6.85;;;2.22;;
54705;SDS011;40603;48.774;8.916;2023-07-20T05:26:47;6.13;;;2.58;;
54705;SDS011;40603;48.774;8.916;2023-07-20T05:29:13;5.15;;;2.20;;
54705;SDS011;40603;48.774;8.916;2023-07-20T05:31:38;5.28;;;2.20;;
54705;SDS011;40603;48.774;8.916;2023-07-20T05:34:04;5.80;;;2.38;;
54705;SDS011;40603;48.774;8.916;2023-07-20T05:36:29;5.80;;;2.38;;
54705;SDS011;40603;48.774;8.916;2023-07-20T05:38:56;3.60;;;2.28;;
54705;SDS011;40603;48.774;8.916;2023-07-20T05:41:21;3.33;;;2.28;;
54705;SDS011;40603;48.774;8.916;2023-07-20T05:43:47;8.20;;;2.17;;
54705;SDS011;40603;48.774;8.916;2023-07-20T05:46:12;4.30;;;2.28;;
54705;SDS011;40603;48.774;8.916;2023-07-20T05:48:38;4.55;;;2.13;;
54705;SDS011;40603;48.774;8.916;2023-07-20T05:51:03;5.85;;;2.10;;
54705;SDS011;40603;48.774;8.916;2023-07-20T05:53:28;3.50;;;2.10;;
54705;SDS011;40603;48.774;8.916;2023-07-20T05:55:54;6.28;;;2.25;;
54705;SDS011;40603;48.774;8.916;2023-07-20T05:58:19;4.05;;;1.92;;
54705;SDS011;40603;48.774;8.916;2023-07-20T06:00:47;6.03;;;2.08;;
54705;SDS011;40603;48.774;8.916;2023-07-20T06:03:14;3.53;;;2.10;;
54705;SDS011;40603;48.774;8.916;2023-07-20T06:05:39;6.18;;;2.00;;
54705;SDS011;40603;48.774;8.916;2023-07-20T06:08:04;2.38;;;1.80;;
54705;SDS011;40603;48.774;8.916;2023-07-20T06:10:30;4.00;;;1.75;;
54705;SDS011;40603;48.774;8.916;2023-07-20T06:12:55;4.05;;;2.10;;
54705;SDS011;40603;48.774;8.916;2023-07-20T06:15:28;5.18;;;2.00;;
54705;SDS011;40603;48.774;8.916;2023-07-20T06:17:56;7.45;;;2.30;;
54705;SDS011;40603;48.774;8.916;2023-07-20T06:20:22;2.38;;;1.58;;
54705;SDS011;40603;48.774;8.916;2023-07-20T06:22:48;5.18;;;1.90;;
54705;SDS011;40603;48.774;8.916;2023-07-20T06:25:13;3.50;;;1.65;;
54705;SDS011;40603;48.774;8.916;2023-07-20T06:27:39;3.05;;;1.55;;
54705;SDS011;40603;48.774;8.916;2023-07-20T06:30:04;5.32;;;1.80;;
54705;SDS011;40603;48.774;8.916;2023-07-20T06:32:30;5.78;;;1.98;;
54705;SDS011;40603;48.774;8.916;2023-07-20T06:34:55;3.95;;;1.90;;
54705;SDS011;40603;48.774;8.916;2023-07-20T06:37:20;3.92;;;1.75;;
54705;SDS011;40603;48.774;8.916;2023-07-20T06:39:46;4.60;;;2.53;;
54705;SDS011;40603;48.774;8.916;2023-07-20T06:42:12;8.27;;;2.10;;
54705;SDS011;40603;48.774;8.916;2023-07-20T06:44:37;2.83;;;1.85;;
54705;SDS011;40603;48.774;8.916;2023-07-20T06:47:02;4.40;;;2.00;;
54705;SDS011;40603;48.774;8.916;2023-07-20T06:49:28;5.03;;;1.90;;
54705;SDS011;40603;48.774;8.916;2023-07-20T06:51:53;3.30;;;1.90;;
54705;SDS011;40603;48.774;8.916;2023-07-20T06:54:19;3.55;;;2.00;;
54705;SDS011;40603;48.774;8.916;2023-07-20T06:56:44;5.85;;;1.98;;
54705;SDS011;40603;48.774;8.916;2023-07-20T06:59:10;3.97;;;2.13;;
54705;SDS011;40603;48.774;8.916;2023-07-20T07:01:35;3.90;;;2.25;;
54705;SDS011;40603;48.774;8.916;2023-07-20T07:04:00;2.35;;;1.95;;
54705;SDS011;40603;48.774;8.916;2023-07-20T07:06:25;3.85;;;2.10;;
54705;SDS011;40603;48.774;8.916;2023-07-20T07:08:52;6.57;;;2.22;;
54705;SDS011;40603;48.774;8.916;2023-07-20T07:11:17;2.10;;;1.90;;
54705;SDS011;40603;48.774;8.916;2023-07-20T07:13:43;4.13;;;2.00;;
54705;SDS011;40603;48.774;8.916;2023-07-20T07:16:08;3.03;;;2.08;;
54705;SDS011;40603;48.774;8.916;2023-07-20T07:18:33;5.43;;;1.80;;
54705;SDS011;40603;48.774;8.916;2023-07-20T07:20:59;2.28;;;1.50;;
54705;SDS011;40603;48.774;8.916;2023-07-20T07:23:24;6.20;;;1.50;;
54705;SDS011;40603;48.774;8.916;2023-07-20T07:25:49;2.95;;;1.50;;
54705;SDS011;40603;48.774;8.916;2023-07-20T07:28:15;2.75;;;1.67;;
54705;SDS011;40603;48.774;8.916;2023-07-20T07:30:40;3.92;;;1.65;;
54705;SDS011;40603;48.774;8.916;2023-07-20T07:33:05;5.05;;;1.85;;
54705;SDS011;40603;48.774;8.916;2023-07-20T07:35:31;3.95;;;1.70;;
54705;SDS011;40603;48.774;8.916;2023-07-20T07:37:56;5.63;;;2.33;;
54705;SDS011;40603;48.774;8.916;2023-07-20T07:40:21;3.00;;;1.83;;
54705;SDS011;40603;48.774;8.916;2023-07-20T07:42:47;10.52;;;2.55;;
54705;SDS011;40603;48.774;8.916;2023-07-20T07:45:12;3.50;;;1.95;;
54705;SDS011;40603;48.774;8.916;2023-07-20T07:47:38;4.43;;;1.70;;
54705;SDS011;40603;48.774;8.916;2023-07-20T07:50:04;3.60;;;1.60;;
54705;SDS011;40603;48.774;8.916;2023-07-20T07:52:29;3.60;;;1.80;;
54705;SDS011;40603;48.774;8.916;2023-07-20T07:54:55;6.95;;;1.90;;
54705;SDS011;40603;48.774;8.916;2023-07-20T07:57:20;6.32;;;2.30;;
54705;SDS011;40603;48.774;8.916;2023-07-20T07:59:45;4.78;;;1.92;;
54705;SDS011;40603;48.774;8.916;2023-07-20T08:02:10;3.72;;;1.80;;
54705;SDS011;40603;48.774;8.916;2023-07-20T08:04:36;4.72;;;2.10;;
54705;SDS011;40603;48.774;8.916;2023-07-20T08:07:03;6.53;;;2.00;;
54705;SDS011;40603;48.774;8.916;2023-07-20T08:09:29;3.72;;;1.80;;
54705;SDS011;40603;48.774;8.916;2023-07-20T08:11:54;2.28;;;1.63;;
54705;SDS011;40603;48.774;8.916;2023-07-20T08:14:19;6.60;;;1.80;;
54705;SDS011;40603;48.774;8.916;2023-07-20T08:16:45;3.60;;;1.60;;
54705;SDS011;40603;48.774;8.916;2023-07-20T08:19:10;4.57;;;1.85;;
54705;SDS011;40603;48.774;8.916;2023-07-20T08:21:36;2.13;;;1.30;;
54705;SDS011;40603;48.774;8.916;2023-07-20T08:24:01;3.70;;;1.55;;
54705;SDS011;40603;48.774;8.916;2023-07-20T08:26:26;4.88;;;1.55;;
54705;SDS011;40603;48.774;8.916;2023-07-20T08:28:52;1.80;;;1.40;;
54705;SDS011;40603;48.774;8.916;2023-07-20T08:31:17;4.63;;;1.63;;
54705;SDS011;40603;48.774;8.916;2023-07-20T08:33:43;6.68;;;2.08;;
54705;SDS011;40603;48.774;8.916;2023-07-20T08:36:08;3.00;;;1.50;;
54705;SDS011;40603;48.774;8.916;2023-07-20T08:38:33;6.25;;;1.90;;
54705;SDS011;40603;48.774;8.916;2023-07-20T08:40:59;5.60;;;1.70;;
54705;SDS011;40603;48.774;8.916;2023-07-20T08:43:27;4.85;;;1.80;;
54705;SDS011;40603;48.774;8.916;2023-07-20T08:45:54;3.15;;;1.52;;
54705;SDS011;40603;48.774;8.916;2023-07-20T08:48:21;4.18;;;1.77;;
54705;SDS011;40603;48.774;8.916;2023-07-20T08:50:47;3.53;;;1.30;;
54705;SDS011;40603;48.774;8.916;2023-07-20T08:53:14;1.63;;;1.40;;
54705;SDS011;40603;48.774;8.916;2023-07-20T08:55:40;2.90;;;1.70;;
54705;SDS011;40603;48.774;8.916;2023-07-20T08:58:06;3.03;;;1.63;;
54705;SDS011;40603;48.774;8.916;2023-07-20T09:00:33;4.93;;;1.70;;
54705;SDS011;40603;48.774;8.916;2023-07-20T09:02:59;5.65;;;1.60;;
54705;SDS011;40603;48.774;8.916;2023-07-20T09:05:27;5.35;;;1.48;;
54705;SDS011;40603;48.774;8.916;2023-07-20T09:07:53;6.53;;;1.73;;
54705;SDS011;40603;48.774;8.916;2023-07-20T09:10:24;5.55;;;1.60;;
54705;SDS011;40603;48.774;8.916;2023-07-20T09:12:49;3.80;;;1.75;;
54705;SDS011;40603;48.774;8.916;2023-07-20T09:15:14;7.57;;;1.65;;
54705;SDS011;40603;48.774;8.916;2023-07-20T09:17:45;3.97;;;1.63;;
54705;SDS011;40603;48.774;8.916;2023-07-20T09:20:11;3.63;;;1.30;;
54705;SDS011;40603;48.774;8.916;2023-07-20T09:22:37;2.83;;;1.50;;
54705;SDS011;40603;48.774;8.916;2023-07-20T09:25:06;4.93;;;1.48;;
54705;SDS011;40603;48.774;8.916;2023-07-20T09:27:37;2.17;;;1.33;;
54705;SDS011;40603;48.774;8.916;2023-07-20T09:30:03;3.33;;;1.13;;
54705;SDS011;40603;48.774;8.916;2023-07-20T09:32:32;2.00;;;1.33;;
54705;SDS011;40603;48.774;8.916;2023-07-20T09:35:03;3.58;;;1.60;;
54705;SDS011;40603;48.774;8.916;2023-07-20T09:37:29;2.08;;;1.40;;
54705;SDS011;40603;48.774;8.916;2023-07-20T09:39:58;2.33;;;1.48;;
54705;SDS011;40603;48.774;8.916;2023-07-20T09:42:23;2.55;;;1.20;;
54705;SDS011;40603;48.774;8.916;2023-07-20T09:44:50;1.92;;;1.27;;
54705;SDS011;40603;48.774;8.916;2023-07-20T09:47:21;2.63;;;1.63;;
54705;SDS011;40603;48.774;8.916;2023-07-20T09:49:47;4.05;;;1.52;;
54705;SDS011;40603;48.774;8.916;2023-07-20T09:52:12;1.10;;;1.00;;
54705;SDS011;40603;48.774;8.916;2023-07-20T09:54:38;2.83;;;1.20;;
54705;SDS011;40603;48.774;8.916;2023-07-20T09:57:03;1.88;;;1.30;;
54705;SDS011;40603;48.774;8.916;2023-07-20T09:59:31;2.00;;;1.38;;
54705;SDS011;40603;48.774;8.916;2023-07-20T10:01:57;2.35;;;1.27;;
54705;SDS011;40603;48.774;8.916;2023-07-20T10:04:24;1.67;;;1.00;;
54705;SDS011;40603;48.774;8.916;2023-07-20T10:06:50;3.30;;;1.08;;
54705;SDS011;40603;48.774;8.916;2023-07-20T10:09:18;7.38;;;1.42;;
54705;SDS011;40603;48.774;8.916;2023-07-20T10:11:46;5.32;;;1.38;;
54705;SDS011;40603;48.774;8.916;2023-07-20T10:16:46;4.13;;;1.10;;
54705;SDS011;40603;48.774;8.916;2023-07-20T10:19:17;3.50;;;1.05;;
54705;SDS011;40603;48.774;8.916;2023-07-20T10:21:47;5.22;;;1.00;;
54705;SDS011;40603;48.774;8.916;2023-07-20T10:24:13;2.25;;;1.10;;
54705;SDS011;40603;48.774;8.916;2023-07-20T10:26:39;2.10;;;1.00;;
54705;SDS011;40603;48.774;8.916;2023-07-20T10:29:05;1.88;;;1.20;;
54705;SDS011;40603;48.774;8.916;2023-07-20T10:31:30;1.40;;;1.08;;
54705;SDS011;40603;48.774;8.916;2023-07-20T10:33:56;1.30;;;1.02;;
54705;SDS011;40603;48.774;8.916;2023-07-20T10:36:26;2.00;;;1.05;;
54705;SDS011;40603;48.774;8.916;2023-07-20T10:38:53;2.85;;;1.98;;
54705;SDS011;40603;48.774;8.916;2023-07-20T10:41:27;2.72;;;1.10;;
54705;SDS011;40603;48.774;8.916;2023-07-20T10:44:03;4.05;;;1.38;;
54705;SDS011;40603;48.774;8.916;2023-07-20T10:49:08;2.72;;;1.20;;
54705;SDS011;40603;48.774;8.916;2023-07-20T10:51:41;1.43;;;1.17;;
54705;SDS011;40603;48.774;8.916;2023-07-20T10:54:08;2.60;;;1.33;;
54705;SDS011;40603;48.774;8.916;2023-07-20T10:56:55;2.08;;;1.35;;
54705;SDS011;40603;48.774;8.916;2023-07-20T11:01:50;1.67;;;1.00;;
54705;SDS011;40603;48.774;8.916;2023-07-20T11:07:36;3.40;;;1.30;;
54705;SDS011;40603;48.774;8.916;2023-07-20T11:10:14;3.22;;;1.20;;
54705;SDS011;40603;48.774;8.916;2023-07-20T11:13:02;3.25;;;0.90;;
54705;SDS011;40603;48.774;8.916;2023-07-20T11:18:12;2.00;;;1.20;;
54705;SDS011;40603;48.774;8.916;2023-07-20T11:20:38;1.42;;;1.27;;
54705;SDS011;40603;48.774;8.916;2023-07-20T11:23:04;1.85;;;1.05;;
54705;SDS011;40603;48.774;8.916;2023-07-20T11:25:39;5.68;;;1.35;;
54705;SDS011;40603;48.774;8.916;2023-07-20T11:28:08;1.85;;;1.10;;
54705;SDS011;40603;48.774;8.916;2023-07-20T11:30:35;2.70;;;0.98;;
54705;SDS011;40603;48.774;8.916;2023-07-20T11:33:01;2.35;;;1.08;;
54705;SDS011;40603;48.774;8.916;2023-07-20T11:35:26;2.75;;;1.40;;
54705;SDS011;40603;48.774;8.916;2023-07-20T11:37:52;2.72;;;1.13;;
54705;SDS011;40603;48.774;8.916;2023-07-20T11:40:17;2.13;;;1.02;;
54705;SDS011;40603;48.774;8.916;2023-07-20T11:42:42;2.55;;;1.30;;
54705;SDS011;40603;48.774;8.916;2023-07-20T11:45:08;3.08;;;1.20;;
54705;SDS011;40603;48.774;8.916;2023-07-20T11:47:34;2.30;;;1.02;;
54705;SDS011;40603;48.774;8.916;2023-07-20T11:50:05;1.23;;;1.10;;
54705;SDS011;40603;48.774;8.916;2023-07-20T11:52:31;1.30;;;1.20;;
54705;SDS011;40603;48.774;8.916;2023-07-20T11:54:56;2.60;;;1.50;;
54705;SDS011;40603;48.774;8.916;2023-07-20T11:57:22;1.17;;;1.08;;
54705;SDS011;40603;48.774;8.916;2023-07-20T11:59:57;3.78;;;0.98;;
54705;SDS011;40603;48.774;8.916;2023-07-20T12:02:26;4.97;;;1.60;;
54705;SDS011;40603;48.774;8.916;2023-07-20T12:04:53;3.72;;;1.40;;
54705;SDS011;40603;48.774;8.916;2023-07-20T12:07:19;2.53;;;1.30;;
54705;SDS011;40603;48.774;8.916;2023-07-20T12:09:44;3.72;;;1.65;;
54705;SDS011;40603;48.774;8.916;2023-07-20T12:12:10;2.38;;;1.27;;
54705;SDS011;40603;48.774;8.916;2023-07-20T12:14:38;3.50;;;1.27;;
54705;SDS011;40603;48.774;8.916;2023-07-20T12:17:04;2.35;;;1.02;;
54705;SDS011;40603;48.774;8.916;2023-07-20T12:19:29;1.70;;;1.08;;
54705;SDS011;40603;48.774;8.916;2023-07-20T12:21:57;2.03;;;1.10;;
54705;SDS011;40603;48.774;8.916;2023-07-20T12:24:24;1.35;;;1.10;;
54705;SDS011;40603;48.774;8.916;2023-07-20T12:26:55;1.77;;;1.00;;
54705;SDS011;40603;48.774;8.916;2023-07-20T12:29:22;2.35;;;1.20;;
54705;SDS011;40603;48.774;8.916;2023-07-20T12:31:47;2.30;;;1.20;;
54705;SDS011;40603;48.774;8.916;2023-07-20T12:34:13;1.63;;;1.17;;
54705;SDS011;40603;48.774;8.916;2023-07-20T12:36:38;1.77;;;1.23;;
54705;SDS011;40603;48.774;8.916;2023-07-20T12:39:03;2.05;;;1.20;;
54705;SDS011;40603;48.774;8.916;2023-07-20T12:41:29;1.63;;;1.08;;
54705;SDS011;40603;48.774;8.916;2023-07-20T12:43:55;1.50;;;0.90;;
54705;SDS011;40603;48.774;8.916;2023-07-20T12:46:22;1.30;;;1.00;;
54705;SDS011;40603;48.774;8.916;2023-07-20T12:48:48;2.20;;;1.23;;
54705;SDS011;40603;48.774;8.916;2023-07-20T12:51:13;1.00;;;0.90;;
54705;SDS011;40603;48.774;8.916;2023-07-20T12:53:38;1.20;;;0.93;;
54705;SDS011;40603;48.774;8.916;2023-07-20T12:56:04;1.73;;;1.15;;
54705;SDS011;40603;48.774;8.916;2023-07-20T12:58:30;1.83;;;1.25;;
54705;SDS011;40603;48.774;8.916;2023-07-20T13:00:55;1.25;;;1.05;;
54705;SDS011;40603;48.774;8.916;2023-07-20T13:03:20;3.60;;;1.00;;
54705;SDS011;40603;48.774;8.916;2023-07-20T13:05:46;4.15;;;1.15;;
54705;SDS011;40603;48.774;8.916;2023-07-20T13:08:11;2.92;;;1.05;;
54705;SDS011;40603;48.774;8.916;2023-07-20T13:10:37;3.60;;;1.13;;
54705;SDS011;40603;48.774;8.916;2023-07-20T13:13:03;1.70;;;1.40;;
54705;SDS011;40603;48.774;8.916;2023-07-20T13:15:29;3.33;;;1.15;;
54705;SDS011;40603;48.774;8.916;2023-07-20T13:17:56;2.58;;;1.13;;
54705;SDS011;40603;48.774;8.916;2023-07-20T13:20:22;4.05;;;1.10;;
54705;SDS011;40603;48.774;8.916;2023-07-20T13:22:47;1.75;;;1.10;;
54705;SDS011;40603;48.774;8.916;2023-07-20T13:25:13;3.08;;;1.15;;
54705;SDS011;40603;48.774;8.916;2023-07-20T13:27:38;1.50;;;1.23;;
54705;SDS011;40603;48.774;8.916;2023-07-20T13:30:03;2.40;;;1.10;;
54705;SDS011;40603;48.774;8.916;2023-07-20T13:32:32;1.27;;;1.10;;
54705;SDS011;40603;48.774;8.916;2023-07-20T13:34:58;1.95;;;1.10;;
54705;SDS011;40603;48.774;8.916;2023-07-20T13:37:23;1.75;;;1.25;;
54705;SDS011;40603;48.774;8.916;2023-07-20T13:39:48;3.83;;;1.33;;
54705;SDS011;40603;48.774;8.916;2023-07-20T13:42:14;5.78;;;1.20;;
54705;SDS011;40603;48.774;8.916;2023-07-20T13:44:39;1.50;;;1.17;;
54705;SDS011;40603;48.774;8.916;2023-07-20T13:47:04;2.80;;;1.10;;
54705;SDS011;40603;48.774;8.916;2023-07-20T13:49:30;2.65;;;1.05;;
54705;SDS011;40603;48.774;8.916;2023-07-20T13:51:56;4.00;;;1.38;;
54705;SDS011;40603;48.774;8.916;2023-07-20T13:54:22;1.65;;;0.90;;
54705;SDS011;40603;48.774;8.916;2023-07-20T13:56:47;1.45;;;0.95;;
54705;SDS011;40603;48.774;8.916;2023-07-20T13:59:12;1.30;;;0.90;;
54705;SDS011;40603;48.774;8.916;2023-07-20T14:01:38;4.63;;;1.40;;
54705;SDS011;40603;48.774;8.916;2023-07-20T14:04:03;1.65;;;1.10;;
54705;SDS011;40603;48.774;8.916;2023-07-20T14:06:29;2.63;;;1.10;;
54705;SDS011;40603;48.774;8.916;2023-07-20T14:08:56;1.95;;;1.38;;
54705;SDS011;40603;48.774;8.916;2023-07-20T14:11:21;1.67;;;1.30;;
54705;SDS011;40603;48.774;8.916;2023-07-20T14:13:47;1.67;;;1.15;;
54705;SDS011;40603;48.774;8.916;2023-07-20T14:16:12;2.65;;;1.20;;
54705;SDS011;40603;48.774;8.916;2023-07-20T14:18:38;3.60;;;1.20;;
54705;SDS011;40603;48.774;8.916;2023-07-20T14:21:03;1.95;;;1.10;;
54705;SDS011;40603;48.774;8.916;2023-07-20T14:23:30;3.88;;;1.40;;
54705;SDS011;40603;48.774;8.916;2023-07-20T14:25:55;1.70;;;1.30;;
54705;SDS011;40603;48.774;8.916;2023-07-20T14:28:21;3.17;;;1.38;;
54705;SDS011;40603;48.774;8.916;2023-07-20T14:30:46;1.90;;;1.30;;
54705;SDS011;40603;48.774;8.916;2023-07-20T14:33:11;3.30;;;1.30;;
54705;SDS011;40603;48.774;8.916;2023-07-20T14:35:37;3.20;;;1.00;;
54705;SDS011;40603;48.774;8.916;2023-07-20T14:38:02;2.05;;;1.05;;
54705;SDS011;40603;48.774;8.916;2023-07-20T14:40:27;1.45;;;1.20;;
54705;SDS011;40603;48.774;8.916;2023-07-20T14:42:53;1.15;;;1.05;;
54705;SDS011;40603;48.774;8.916;2023-07-20T14:45:18;3.70;;;1.40;;
54705;SDS011;40603;48.774;8.916;2023-07-20T14:47:44;1.35;;;1.10;;
54705;SDS011;40603;48.774;8.916;2023-07-20T14:50:10;3.10;;;1.25;;
54705;SDS011;40603;48.774;8.916;2023-07-20T14:52:37;3.60;;;1.17;;
54705;SDS011;40603;48.774;8.916;2023-07-20T14:55:02;5.25;;;1.30;;
54705;SDS011;40603;48.774;8.916;2023-07-20T14:57:28;1.38;;;1.20;;
54705;SDS011;40603;48.774;8.916;2023-07-20T14:59:53;2.42;;;1.20;;
54705;SDS011;40603;48.774;8.916;2023-07-20T15:02:19;2.80;;;1.65;;
54705;SDS011;40603;48.774;8.916;2023-07-20T15:04:47;1.35;;;1.20;;
54705;SDS011;40603;48.774;8.916;2023-07-20T15:07:17;2.15;;;1.20;;